createdAt,value
2019-01-24T00:00:48.802Z,67.45
2019-01-24T00:01:53.977Z,68.20
2019-01-24T00:02:59.025Z,62.73
2019-01-24T00:04:04.210Z,62.53
2019-01-24T00:05:09.300Z,60.85
2019-01-24T00:06:14.354Z,64.15
2019-01-24T00:07:19.823Z,63.23
2019-01-24T00:08:24.823Z,74.35
2019-01-24T00:09:30.756Z,61.88
2019-01-24T00:10:36.434Z,63.92
2019-01-24T00:11:41.505Z,64.35
2019-01-24T00:12:46.525Z,50.83
2019-01-24T00:13:51.532Z,73.57
2019-01-24T00:14:56.570Z,65.83
2019-01-24T00:16:01.822Z,60.33
2019-01-24T00:17:07.441Z,71.82
2019-01-24T00:18:12.844Z,69.37
2019-01-24T00:19:18.200Z,67.55
2019-01-24T00:20:23.599Z,64.05
2019-01-24T00:21:28.526Z,70.70
2019-01-24T00:22:33.895Z,69.72
2019-01-24T00:23:39.151Z,56.48
2019-01-24T00:24:44.195Z,54.73
2019-01-24T00:25:49.851Z,63.08
2019-01-24T00:26:54.822Z,64.62
2019-01-24T00:27:59.871Z,59.10
2019-01-24T00:29:04.976Z,67.75
2019-01-24T00:30:11.079Z,58.13
2019-01-24T00:31:16.118Z,64.05
2019-01-24T00:32:21.775Z,53.28
2019-01-24T00:33:26.804Z,63.23
2019-01-24T00:34:31.857Z,72.58
2019-01-24T00:35:39.846Z,61.18
2019-01-24T00:36:45.219Z,65.37
2019-01-24T00:37:50.206Z,54.88
2019-01-24T00:38:55.303Z,65.17
2019-01-24T00:40:00.257Z,58.45
2019-01-24T00:41:05.696Z,70.08
2019-01-24T00:42:10.808Z,57.38
2019-01-24T00:43:15.816Z,64.47
2019-01-24T00:44:20.739Z,61.73
2019-01-24T00:45:25.746Z,58.70
2019-01-24T00:46:30.764Z,63.98
2019-01-24T00:47:36.226Z,58.68
2019-01-24T00:48:41.537Z,60.20
2019-01-24T00:49:46.587Z,71.15
2019-01-24T00:50:51.526Z,62.35
2019-01-24T00:51:56.778Z,62.93
2019-01-24T00:53:02.225Z,66.00
2019-01-24T00:54:07.229Z,59.50
2019-01-24T00:55:13.887Z,59.27
2019-01-24T00:56:18.919Z,67.37
2019-01-24T00:57:24.157Z,74.55
2019-01-24T00:58:29.435Z,58.83
2019-01-24T00:59:34.485Z,70.32
2019-01-24T01:00:39.593Z,61.00
2019-01-24T01:01:44.984Z,64.25
2019-01-24T01:02:50.378Z,63.42
2019-01-24T01:03:55.785Z,74.00
2019-01-24T01:05:00.715Z,62.78
2019-01-24T01:06:07.078Z,59.18
2019-01-24T01:07:12.105Z,61.35
2019-01-24T01:08:17.535Z,63.80
2019-01-24T01:09:22.789Z,50.70
2019-01-24T01:10:28.816Z,59.58
2019-01-24T01:11:33.829Z,59.75
2019-01-24T01:12:39.275Z,56.10
2019-01-24T01:13:44.335Z,65.87
2019-01-24T01:14:49.684Z,65.40
2019-01-24T01:15:54.688Z,64.25
2019-01-24T01:17:00.230Z,66.45
2019-01-24T01:18:05.910Z,68.62
2019-01-24T01:19:11.094Z,58.58
2019-01-24T01:20:18.478Z,63.48
2019-01-24T01:21:23.875Z,64.87
2019-01-24T01:22:28.890Z,65.15
2019-01-24T01:23:33.919Z,66.45
2019-01-24T01:24:39.047Z,74.47
2019-01-24T01:25:44.136Z,56.68
2019-01-24T01:26:49.165Z,66.42
2019-01-24T01:27:54.218Z,66.55
2019-01-24T01:28:59.292Z,69.45
2019-01-24T01:30:06.254Z,70.17
2019-01-24T01:31:11.349Z,65.47
2019-01-24T01:32:16.659Z,62.55
2019-01-24T01:33:21.699Z,68.15
2019-01-24T01:34:26.744Z,66.28
2019-01-24T01:35:31.756Z,68.65
2019-01-24T01:36:36.733Z,68.80
2019-01-24T01:37:42.095Z,70.52
2019-01-24T01:38:47.032Z,73.85
2019-01-24T01:39:52.357Z,68.75
2019-01-24T01:40:57.277Z,77.50
2019-01-24T01:42:02.651Z,69.90
2019-01-24T01:43:07.753Z,68.87
2019-01-24T01:44:12.736Z,72.55
2019-01-24T01:45:19.901Z,77.03
2019-01-24T01:46:24.833Z,63.02
2019-01-24T01:47:29.772Z,71.70
2019-01-24T01:48:35.087Z,69.45
2019-01-24T01:49:40.477Z,64.00
2019-01-24T01:50:45.947Z,65.85
2019-01-24T01:51:50.923Z,62.50
2019-01-24T01:52:56.023Z,65.45
2019-01-24T01:54:00.925Z,80.47
2019-01-24T01:55:06.387Z,66.35
2019-01-24T01:56:11.402Z,68.78
2019-01-24T01:57:16.374Z,70.95
2019-01-24T01:58:21.669Z,68.05
2019-01-24T01:59:26.651Z,69.95
2019-01-24T02:00:31.714Z,71.75
2019-01-24T02:01:37.074Z,59.08
2019-01-24T02:02:42.115Z,60.03
2019-01-24T02:03:47.135Z,65.15
2019-01-24T02:04:52.138Z,67.32
2019-01-24T02:05:57.052Z,63.33
2019-01-24T02:07:02.307Z,80.03
2019-01-24T02:08:07.817Z,63.10
2019-01-24T02:09:12.881Z,66.07
2019-01-24T02:10:20.394Z,64.45
2019-01-24T02:11:25.471Z,64.77
2019-01-24T02:12:31.446Z,68.62
2019-01-24T02:13:36.735Z,63.80
2019-01-24T02:14:41.803Z,62.13
2019-01-24T02:15:47.504Z,54.98
2019-01-24T02:16:52.791Z,65.05
2019-01-24T02:17:57.797Z,69.15
2019-01-24T02:19:02.785Z,67.60
2019-01-24T02:20:10.812Z,62.48
2019-01-24T02:21:16.191Z,64.17
2019-01-24T02:22:21.379Z,64.37
2019-01-24T02:23:26.393Z,64.67
2019-01-24T02:24:31.327Z,62.25
2019-01-24T02:25:36.676Z,63.45
2019-01-24T02:26:41.775Z,64.27
2019-01-24T02:27:46.863Z,64.35
2019-01-24T02:28:51.889Z,63.85
2019-01-24T02:29:56.915Z,56.58
2019-01-24T02:31:01.981Z,63.50
2019-01-24T02:32:07.564Z,67.08
2019-01-24T02:33:12.509Z,69.00
2019-01-24T02:34:17.925Z,71.77
2019-01-24T02:35:22.997Z,62.03
2019-01-24T02:36:28.305Z,67.80
2019-01-24T02:37:33.231Z,66.55
2019-01-24T02:38:38.596Z,63.75
2019-01-24T02:39:43.571Z,64.47
2019-01-24T02:40:48.601Z,44.08
2019-01-24T02:41:53.688Z,64.47
2019-01-24T02:42:58.781Z,64.75
2019-01-24T02:44:04.198Z,54.23
2019-01-24T02:45:11.924Z,58.48
2019-01-24T02:46:17.167Z,64.07
2019-01-24T02:47:22.940Z,57.60
2019-01-24T02:48:27.849Z,62.73
2019-01-24T02:49:33.228Z,72.70
2019-01-24T02:50:38.423Z,56.08
2019-01-24T02:51:43.449Z,60.20
2019-01-24T02:52:48.923Z,59.30
2019-01-24T02:53:53.883Z,61.50
2019-01-24T02:54:59.162Z,59.80
2019-01-24T02:56:04.801Z,56.28
2019-01-24T02:57:09.935Z,62.98
2019-01-24T02:58:14.974Z,62.55
2019-01-24T02:59:20.030Z,65.30
2019-01-24T03:00:26.921Z,61.35
2019-01-24T03:01:31.860Z,63.10
2019-01-24T03:02:36.865Z,57.45
2019-01-24T03:03:42.090Z,65.55
2019-01-24T03:04:47.179Z,56.05
2019-01-24T03:05:52.079Z,70.65
2019-01-24T03:06:57.429Z,60.98
2019-01-24T03:08:02.467Z,64.45
2019-01-24T03:09:07.985Z,56.30
2019-01-24T03:10:13.870Z,53.02
2019-01-24T03:11:19.125Z,59.55
2019-01-24T03:12:24.209Z,67.17
2019-01-24T03:13:29.477Z,59.80
2019-01-24T03:14:35.249Z,67.78
2019-01-24T03:15:40.541Z,65.60
2019-01-24T03:16:45.620Z,67.92
2019-01-24T03:17:50.905Z,66.17
2019-01-24T03:18:56.507Z,69.97
2019-01-24T03:20:01.782Z,71.67
2019-01-24T03:21:06.872Z,67.50
2019-01-24T03:22:12.224Z,62.20
2019-01-24T03:23:17.551Z,60.63
2019-01-24T03:24:22.498Z,61.90
2019-01-24T03:25:27.944Z,58.08
2019-01-24T03:26:33.019Z,63.83
2019-01-24T03:27:38.172Z,69.35
2019-01-24T03:28:43.087Z,68.17
2019-01-24T03:29:49.110Z,65.08
2019-01-24T03:30:54.115Z,67.17
2019-01-24T03:31:59.480Z,69.17
2019-01-24T03:33:04.517Z,68.95
2019-01-24T03:34:09.383Z,63.95
2019-01-24T03:35:16.933Z,59.63
2019-01-24T03:36:22.018Z,67.27
2019-01-24T03:37:26.932Z,68.97
2019-01-24T03:38:31.944Z,69.75
2019-01-24T03:39:37.797Z,63.70
2019-01-24T03:40:42.895Z,66.20
2019-01-24T03:41:48.307Z,58.80
2019-01-24T03:42:53.441Z,61.20
2019-01-24T03:43:58.393Z,65.50
2019-01-24T03:45:05.062Z,69.35
2019-01-24T03:46:10.054Z,60.12
2019-01-24T03:47:15.786Z,60.10
2019-01-24T03:48:21.467Z,64.32
2019-01-24T03:49:26.390Z,68.15
2019-01-24T03:50:32.324Z,72.53
2019-01-24T03:51:37.282Z,63.58
2019-01-24T03:52:42.308Z,60.10
2019-01-24T03:53:47.305Z,62.00
2019-01-24T03:54:52.883Z,64.40
2019-01-24T03:55:58.603Z,67.12
2019-01-24T03:57:03.516Z,58.98
2019-01-24T03:58:08.850Z,68.20
2019-01-24T03:59:13.781Z,56.63
2019-01-24T04:00:21.552Z,66.85
2019-01-24T04:01:26.563Z,68.33
2019-01-24T04:02:32.237Z,65.52
2019-01-24T04:03:37.381Z,63.85
2019-01-24T04:04:42.784Z,56.92
2019-01-24T04:05:47.880Z,60.45
2019-01-24T04:06:52.902Z,64.95
2019-01-24T04:07:58.246Z,59.83
2019-01-24T04:09:05.526Z,61.65
2019-01-24T04:10:13.148Z,70.92
2019-01-24T04:11:18.456Z,70.40
2019-01-24T04:12:23.412Z,66.60
2019-01-24T04:13:28.418Z,57.38
2019-01-24T04:14:33.368Z,69.37
2019-01-24T04:15:38.437Z,70.08
2019-01-24T04:16:44.695Z,70.17
2019-01-24T04:17:49.972Z,60.52
2019-01-24T04:18:55.244Z,74.70
2019-01-24T04:20:00.280Z,70.62
2019-01-24T04:21:05.676Z,58.55
2019-01-24T04:22:11.627Z,64.40
2019-01-24T04:23:17.083Z,69.35
2019-01-24T04:24:22.009Z,72.17
2019-01-24T04:25:26.963Z,66.02
2019-01-24T04:26:32.240Z,63.70
2019-01-24T04:27:37.248Z,62.35
2019-01-24T04:28:42.533Z,59.18
2019-01-24T04:29:47.436Z,67.75
2019-01-24T04:30:53.117Z,57.45
2019-01-24T04:31:58.117Z,59.40
2019-01-24T04:33:03.436Z,64.55
2019-01-24T04:34:08.418Z,66.17
2019-01-24T04:35:19.704Z,59.80
2019-01-24T04:36:21.244Z,63.42
2019-01-24T04:37:26.223Z,61.23
2019-01-24T04:38:31.424Z,70.20
2019-01-24T04:39:36.438Z,65.67
2019-01-24T04:40:41.434Z,65.05
2019-01-24T04:41:46.391Z,70.42
2019-01-24T04:42:51.553Z,60.75
2019-01-24T04:43:56.933Z,61.70
2019-01-24T04:45:01.883Z,71.35
2019-01-24T04:46:06.884Z,63.75
2019-01-24T04:47:11.903Z,66.17
2019-01-24T04:48:16.814Z,71.07
2019-01-24T04:49:21.858Z,70.92
2019-01-24T04:50:26.864Z,72.53
2019-01-24T04:51:32.195Z,76.17
2019-01-24T04:52:37.292Z,69.42
2019-01-24T04:53:42.199Z,66.42
2019-01-24T04:54:47.121Z,63.38
2019-01-24T04:55:52.359Z,71.50
2019-01-24T04:56:57.731Z,59.75
2019-01-24T04:58:02.989Z,71.70
2019-01-24T04:59:08.519Z,83.95
2019-01-24T05:00:27.952Z,68.45
2019-01-24T05:01:32.939Z,67.53
2019-01-24T05:02:37.946Z,62.00
2019-01-24T05:03:42.877Z,69.47
2019-01-24T05:04:47.914Z,69.22
2019-01-24T05:05:52.868Z,74.32
2019-01-24T05:06:57.993Z,78.10
2019-01-24T05:08:03.309Z,86.95
2019-01-24T05:09:08.905Z,68.05
2019-01-24T05:10:14.538Z,87.20
2019-01-24T05:11:19.467Z,71.75
2019-01-24T05:12:24.382Z,72.40
2019-01-24T05:13:29.297Z,76.00
2019-01-24T05:14:34.584Z,79.72
2019-01-24T05:15:39.683Z,71.02
2019-01-24T05:16:44.654Z,70.57
2019-01-24T05:17:49.638Z,73.22
2019-01-24T05:18:55.822Z,69.50
2019-01-24T05:20:00.789Z,78.15
2019-01-24T05:21:06.463Z,68.22
2019-01-24T05:22:11.377Z,69.77
2019-01-24T05:23:16.645Z,73.15
2019-01-24T05:24:21.829Z,80.28
2019-01-24T05:25:26.893Z,68.40
2019-01-24T05:26:32.151Z,53.10
2019-01-24T05:27:37.535Z,75.60
2019-01-24T05:28:42.461Z,71.80
2019-01-24T05:29:47.393Z,67.97
2019-01-24T05:30:52.495Z,75.00
2019-01-24T05:31:57.841Z,81.80
2019-01-24T05:33:03.152Z,68.87
2019-01-24T05:34:08.841Z,76.82
2019-01-24T05:35:14.438Z,72.70
2019-01-24T05:36:19.432Z,68.30
2019-01-24T05:37:24.790Z,76.82
2019-01-24T05:38:30.058Z,75.95
2019-01-24T05:39:35.099Z,75.30
2019-01-24T05:40:40.452Z,78.85
2019-01-24T05:41:45.529Z,72.80
2019-01-24T05:42:50.526Z,86.65
2019-01-24T05:43:56.002Z,73.33
2019-01-24T05:45:01.246Z,82.10
2019-01-24T05:46:06.278Z,72.50
2019-01-24T05:47:11.613Z,81.00
2019-01-24T05:48:17.086Z,84.10
2019-01-24T05:49:22.385Z,77.40
2019-01-24T05:50:27.849Z,73.33
2019-01-24T05:51:33.146Z,69.72
2019-01-24T05:52:38.616Z,82.92
2019-01-24T05:53:43.845Z,70.97
2019-01-24T05:54:48.882Z,79.82
2019-01-24T05:55:53.811Z,81.10
2019-01-24T05:56:58.784Z,75.57
2019-01-24T05:58:03.924Z,78.35
2019-01-24T05:59:09.230Z,79.07
2019-01-24T06:00:19.952Z,72.30
2019-01-24T06:01:25.948Z,72.40
2019-01-24T06:02:30.990Z,78.83
2019-01-24T06:03:36.120Z,79.45
2019-01-24T06:04:45.423Z,78.97
2019-01-24T06:05:50.405Z,83.72
2019-01-24T06:06:55.378Z,73.80
2019-01-24T06:08:00.695Z,69.15
2019-01-24T06:09:08.027Z,88.72
2019-01-24T06:10:14.358Z,80.55
2019-01-24T06:11:19.586Z,79.47
2019-01-24T06:12:24.518Z,79.77
2019-01-24T06:13:29.866Z,75.00
2019-01-24T06:14:35.230Z,73.30
2019-01-24T06:15:40.545Z,66.45
2019-01-24T06:16:45.834Z,84.00
2019-01-24T06:17:51.189Z,74.32
2019-01-24T06:18:56.273Z,77.08
2019-01-24T06:20:01.366Z,84.40
2019-01-24T06:21:07.655Z,73.95
2019-01-24T06:22:12.716Z,87.17
2019-01-24T06:23:17.808Z,84.05
2019-01-24T06:24:22.827Z,83.70
2019-01-24T06:25:27.851Z,66.12
2019-01-24T06:26:33.224Z,71.45
2019-01-24T06:27:38.518Z,85.85
2019-01-24T06:28:43.575Z,82.20
2019-01-24T06:29:48.516Z,77.22
2019-01-24T06:30:53.590Z,77.75
2019-01-24T06:31:58.596Z,69.77
2019-01-24T06:33:04.004Z,76.70
2019-01-24T06:34:09.071Z,78.10
2019-01-24T06:35:14.278Z,86.53
2019-01-24T06:36:19.600Z,80.85
2019-01-24T06:37:24.646Z,74.95
2019-01-24T06:38:29.831Z,69.47
2019-01-24T06:39:34.733Z,79.22
2019-01-24T06:40:40.109Z,78.83
2019-01-24T06:41:45.861Z,70.00
2019-01-24T06:42:51.128Z,74.00
2019-01-24T06:43:56.146Z,74.35
2019-01-24T06:45:01.318Z,72.65
2019-01-24T06:46:06.506Z,83.75
2019-01-24T06:47:11.549Z,78.90
2019-01-24T06:48:16.765Z,72.62
2019-01-24T06:49:21.723Z,68.35
2019-01-24T06:50:27.360Z,67.47
2019-01-24T06:51:32.633Z,70.92
2019-01-24T06:52:37.745Z,75.15
2019-01-24T06:53:42.929Z,68.80
2019-01-24T06:54:48.235Z,68.30
2019-01-24T06:55:53.506Z,78.25
2019-01-24T06:56:58.904Z,56.70
2019-01-24T06:58:04.350Z,70.37
2019-01-24T06:59:09.351Z,70.67
2019-01-24T07:00:16.603Z,78.20
2019-01-24T07:01:22.083Z,74.72
2019-01-24T07:02:27.510Z,72.53
2019-01-24T07:03:32.486Z,74.12
2019-01-24T07:04:37.466Z,78.52
2019-01-24T07:05:43.221Z,74.87
2019-01-24T07:06:48.545Z,76.80
2019-01-24T07:07:53.644Z,73.87
2019-01-24T07:08:58.983Z,78.90
2019-01-24T07:10:04.627Z,75.00
2019-01-24T07:11:09.645Z,68.70
2019-01-24T07:12:15.081Z,65.12
2019-01-24T07:13:20.262Z,63.58
2019-01-24T07:14:25.547Z,69.87
2019-01-24T07:15:30.736Z,71.37
2019-01-24T07:16:35.814Z,75.62
2019-01-24T07:17:41.794Z,87.00
2019-01-24T07:18:47.024Z,72.62
2019-01-24T07:19:51.997Z,80.72
2019-01-24T07:20:57.294Z,83.72
2019-01-24T07:22:02.755Z,74.75
2019-01-24T07:23:08.652Z,73.57
2019-01-24T07:24:13.624Z,67.65
2019-01-24T07:25:23.880Z,82.05
2019-01-24T07:26:28.956Z,69.75
2019-01-24T07:27:33.979Z,80.47
2019-01-24T07:28:38.906Z,71.10
2019-01-24T07:29:44.500Z,68.52
2019-01-24T07:30:49.624Z,69.72
2019-01-24T07:31:54.597Z,69.65
2019-01-24T07:32:59.752Z,68.80
2019-01-24T07:34:05.247Z,78.33
2019-01-24T07:35:12.801Z,71.77
2019-01-24T07:36:17.869Z,68.60
2019-01-24T07:37:23.527Z,82.65
2019-01-24T07:38:28.906Z,81.42
2019-01-24T07:39:34.236Z,77.95
2019-01-24T07:40:39.523Z,75.28
2019-01-24T07:41:44.615Z,74.00
2019-01-24T07:42:51.472Z,79.95
2019-01-24T07:43:56.431Z,84.00
2019-01-24T07:45:01.425Z,80.85
2019-01-24T07:46:07.089Z,80.28
2019-01-24T07:47:12.116Z,76.95
2019-01-24T07:48:17.391Z,78.65
2019-01-24T07:49:22.401Z,88.42
2019-01-24T07:50:27.676Z,73.00
2019-01-24T07:51:32.954Z,75.47
2019-01-24T07:52:38.423Z,75.22
2019-01-24T07:53:43.432Z,90.12
2019-01-24T07:54:48.786Z,90.40
2019-01-24T07:55:54.600Z,84.67
2019-01-24T07:56:59.982Z,76.85
2019-01-24T07:58:06.842Z,85.83
2019-01-24T07:59:11.938Z,91.40
2019-01-24T08:00:19.999Z,98.03
2019-01-24T08:01:24.990Z,84.58
2019-01-24T08:02:29.975Z,83.70
2019-01-24T08:03:35.043Z,95.30
2019-01-24T08:04:40.007Z,87.30
2019-01-24T08:05:45.066Z,92.35
2019-01-24T08:06:50.083Z,85.00
2019-01-24T08:07:55.227Z,83.12
2019-01-24T08:09:00.319Z,88.60
2019-01-24T08:10:06.782Z,93.52
2019-01-24T08:11:12.115Z,83.20
2019-01-24T08:12:17.046Z,73.05
2019-01-24T08:13:22.110Z,83.67
2019-01-24T08:14:27.251Z,90.07
2019-01-24T08:15:32.555Z,79.05
2019-01-24T08:16:37.464Z,81.25
2019-01-24T08:17:42.680Z,76.97
2019-01-24T08:18:47.669Z,88.65
2019-01-24T08:19:52.964Z,95.38
2019-01-24T08:20:58.093Z,92.67
2019-01-24T08:22:03.319Z,89.67
2019-01-24T08:23:08.593Z,81.15
2019-01-24T08:24:13.577Z,86.87
2019-01-24T08:25:19.749Z,99.03
2019-01-24T08:26:24.949Z,88.33
2019-01-24T08:27:30.124Z,80.65
2019-01-24T08:28:36.109Z,90.50
2019-01-24T08:29:41.256Z,90.42
2019-01-24T08:30:47.827Z,99.20
2019-01-24T08:31:52.785Z,97.02
2019-01-24T08:32:58.169Z,102.85
2019-01-24T08:34:03.557Z,98.42
2019-01-24T08:35:09.062Z,89.13
2019-01-24T08:36:15.617Z,94.25
2019-01-24T08:37:20.835Z,96.32
2019-01-24T08:38:26.161Z,93.27
2019-01-24T08:39:31.798Z,93.00
2019-01-24T08:40:37.736Z,102.55
2019-01-24T08:41:43.587Z,91.37
2019-01-24T08:42:48.711Z,100.05
2019-01-24T08:43:53.653Z,96.37
2019-01-24T08:44:58.676Z,88.03
2019-01-24T08:46:03.652Z,95.97
2019-01-24T08:47:09.003Z,92.85
2019-01-24T08:48:14.295Z,90.70
2019-01-24T08:49:19.368Z,93.47
2019-01-24T08:50:25.005Z,96.10
2019-01-24T08:51:30.035Z,96.67
2019-01-24T08:52:35.057Z,99.13
2019-01-24T08:53:40.063Z,87.20
2019-01-24T08:54:45.164Z,93.07
2019-01-24T08:55:50.078Z,98.35
2019-01-24T08:56:54.989Z,94.72
2019-01-24T08:58:00.469Z,99.47
2019-01-24T08:59:05.860Z,89.85
2019-01-24T09:00:13.771Z,94.03
2019-01-24T09:01:18.763Z,92.53
2019-01-24T09:02:23.883Z,88.67
2019-01-24T09:03:28.971Z,88.78
2019-01-24T09:04:34.249Z,81.97
2019-01-24T09:05:39.561Z,96.02
2019-01-24T09:06:44.566Z,93.50
2019-01-24T09:07:49.725Z,91.78
2019-01-24T09:08:55.128Z,93.97
2019-01-24T09:10:00.092Z,90.42
2019-01-24T09:11:05.386Z,92.25
2019-01-24T09:12:10.415Z,87.70
2019-01-24T09:13:15.732Z,81.25
2019-01-24T09:14:20.810Z,95.00
2019-01-24T09:15:26.187Z,102.45
2019-01-24T09:16:31.403Z,81.20
2019-01-24T09:17:36.679Z,80.60
2019-01-24T09:18:41.702Z,93.27
2019-01-24T09:19:47.920Z,85.05
2019-01-24T09:20:53.706Z,101.58
2019-01-24T09:21:58.994Z,98.92
2019-01-24T09:23:05.084Z,83.03
2019-01-24T09:24:10.221Z,92.37
2019-01-24T09:25:15.811Z,96.55
2019-01-24T09:26:20.757Z,105.37
2019-01-24T09:27:26.993Z,98.95
2019-01-24T09:28:32.285Z,92.60
2019-01-24T09:29:39.241Z,82.70
2019-01-24T09:30:44.550Z,97.95
2019-01-24T09:31:49.595Z,99.20
2019-01-24T09:32:54.933Z,101.70
2019-01-24T09:34:00.179Z,95.55
2019-01-24T09:35:06.724Z,89.47
2019-01-24T09:36:11.762Z,98.87
2019-01-24T09:37:16.823Z,88.87
2019-01-24T09:38:21.879Z,99.80
2019-01-24T09:39:27.055Z,93.95
2019-01-24T09:40:32.222Z,87.95
2019-01-24T09:41:38.450Z,93.95
2019-01-24T09:42:43.518Z,112.08
2019-01-24T09:43:48.568Z,92.95
2019-01-24T09:44:53.549Z,98.45
2019-01-24T09:45:58.511Z,104.90
2019-01-24T09:47:03.575Z,95.53
2019-01-24T09:48:09.262Z,100.75
2019-01-24T09:49:14.623Z,95.28
2019-01-24T09:50:21.478Z,97.92
2019-01-24T09:51:26.890Z,94.70
2019-01-24T09:52:32.136Z,100.67
2019-01-24T09:53:37.122Z,97.27
2019-01-24T09:54:42.395Z,99.35
2019-01-24T09:55:47.461Z,89.77
2019-01-24T09:56:55.338Z,91.55
2019-01-24T09:58:00.407Z,98.55
2019-01-24T09:59:05.571Z,106.10
2019-01-24T10:00:17.077Z,101.75
2019-01-24T10:01:22.002Z,97.53
2019-01-24T10:02:27.082Z,97.22
2019-01-24T10:03:32.104Z,100.62
2019-01-24T10:04:37.416Z,103.78
2019-01-24T10:05:42.509Z,101.75
2019-01-24T10:06:47.475Z,106.78
2019-01-24T10:07:52.919Z,87.17
2019-01-24T10:08:58.381Z,91.92
2019-01-24T10:10:04.398Z,98.27
2019-01-24T10:11:09.434Z,104.47
2019-01-24T10:12:14.639Z,89.47
2019-01-24T10:13:19.733Z,94.07
2019-01-24T10:14:25.009Z,94.07
2019-01-24T10:15:30.251Z,105.58
2019-01-24T10:16:35.249Z,90.12
2019-01-24T10:17:40.418Z,90.10
2019-01-24T10:18:45.880Z,96.87
2019-01-24T10:19:50.852Z,110.92
2019-01-24T10:20:55.909Z,98.72
2019-01-24T10:22:00.931Z,101.05
2019-01-24T10:23:06.012Z,90.28
2019-01-24T10:24:10.990Z,86.35
2019-01-24T10:25:18.717Z,86.50
2019-01-24T10:26:23.666Z,90.05
2019-01-24T10:27:29.307Z,90.17
2019-01-24T10:28:34.362Z,96.05
2019-01-24T10:29:40.313Z,91.40
2019-01-24T10:30:45.249Z,99.65
2019-01-24T10:31:50.196Z,82.53
2019-01-24T10:32:55.852Z,87.20
2019-01-24T10:34:00.936Z,95.00
2019-01-24T10:35:06.222Z,96.65
2019-01-24T10:36:11.163Z,91.90
2019-01-24T10:37:17.520Z,98.72
2019-01-24T10:38:22.914Z,87.08
2019-01-24T10:39:28.067Z,103.40
2019-01-24T10:40:33.755Z,88.07
2019-01-24T10:41:38.919Z,100.58
2019-01-24T10:42:44.489Z,100.72
2019-01-24T10:43:49.491Z,94.00
2019-01-24T10:44:54.846Z,98.30
2019-01-24T10:46:00.541Z,89.07
2019-01-24T10:47:05.703Z,102.22
2019-01-24T10:48:10.798Z,102.87
2019-01-24T10:49:15.751Z,92.15
2019-01-24T10:50:22.607Z,87.50
2019-01-24T10:51:27.549Z,99.97
2019-01-24T10:52:32.485Z,97.12
2019-01-24T10:53:37.779Z,91.05
2019-01-24T10:54:43.038Z,89.87
2019-01-24T10:55:48.166Z,96.67
2019-01-24T10:56:53.059Z,91.25
2019-01-24T10:58:00.737Z,75.20
2019-01-24T10:59:05.945Z,93.25
2019-01-24T11:00:14.724Z,95.85
2019-01-24T11:01:20.089Z,93.22
2019-01-24T11:02:25.078Z,86.42
2019-01-24T11:03:30.371Z,86.82
2019-01-24T11:04:35.388Z,87.82
2019-01-24T11:05:40.485Z,86.57
2019-01-24T11:06:50.045Z,93.12
2019-01-24T11:07:52.669Z,102.30
2019-01-24T11:08:57.850Z,81.67
2019-01-24T11:10:03.463Z,85.17
2019-01-24T11:11:08.918Z,79.20
2019-01-24T11:12:14.168Z,94.52
2019-01-24T11:13:19.195Z,86.70
2019-01-24T11:14:24.420Z,95.07
2019-01-24T11:15:29.550Z,101.27
2019-01-24T11:16:34.501Z,100.05
2019-01-24T11:17:40.158Z,98.82
2019-01-24T11:18:45.544Z,97.53
2019-01-24T11:19:50.487Z,95.87
2019-01-24T11:20:56.510Z,100.22
2019-01-24T11:22:01.857Z,97.27
2019-01-24T11:23:07.141Z,91.00
2019-01-24T11:24:12.081Z,86.05
2019-01-24T11:25:19.115Z,96.20
2019-01-24T11:26:24.485Z,96.50
2019-01-24T11:27:29.564Z,109.27
2019-01-24T11:28:34.573Z,93.58
2019-01-24T11:29:39.693Z,96.32
2019-01-24T11:30:44.884Z,89.90
2019-01-24T11:31:50.840Z,102.78
2019-01-24T11:32:56.247Z,99.20
2019-01-24T11:34:01.294Z,100.85
2019-01-24T11:35:08.848Z,99.58
2019-01-24T11:36:13.968Z,99.67
2019-01-24T11:37:18.974Z,84.47
2019-01-24T11:38:24.273Z,82.88
2019-01-24T11:39:29.352Z,90.53
2019-01-24T11:40:34.448Z,88.37
2019-01-24T11:41:40.390Z,94.77
2019-01-24T11:42:45.614Z,89.70
2019-01-24T11:43:50.610Z,84.97
2019-01-24T11:44:55.690Z,95.70
2019-01-24T11:46:00.839Z,90.85
2019-01-24T11:47:05.958Z,96.92
2019-01-24T11:48:11.066Z,86.15
2019-01-24T11:49:16.069Z,90.50
2019-01-24T11:50:21.491Z,90.45
2019-01-24T11:51:26.733Z,90.38
2019-01-24T11:52:32.053Z,94.55
2019-01-24T11:53:37.085Z,100.02
2019-01-24T11:54:42.499Z,95.87
2019-01-24T11:55:47.855Z,90.00
2019-01-24T11:56:53.171Z,91.80
2019-01-24T11:57:58.231Z,93.70
2019-01-24T11:59:03.279Z,99.32
2019-01-24T12:00:16.871Z,94.85
2019-01-24T12:01:21.825Z,101.65
2019-01-24T12:02:27.020Z,94.20
2019-01-24T12:03:32.049Z,92.72
2019-01-24T12:04:37.019Z,90.17
2019-01-24T12:05:42.104Z,96.82
2019-01-24T12:06:47.385Z,99.50
2019-01-24T12:07:52.492Z,104.67
2019-01-24T12:08:57.549Z,95.70
2019-01-24T12:10:02.914Z,93.12
2019-01-24T12:11:08.229Z,89.22
2019-01-24T12:12:13.496Z,85.47
2019-01-24T12:13:18.873Z,96.17
2019-01-24T12:14:23.816Z,82.88
2019-01-24T12:15:28.990Z,85.90
2019-01-24T12:16:34.364Z,93.05
2019-01-24T12:17:39.696Z,96.50
2019-01-24T12:18:45.266Z,90.15
2019-01-24T12:19:50.310Z,85.40
2019-01-24T12:20:56.107Z,84.42
2019-01-24T12:22:02.672Z,88.50
2019-01-24T12:23:08.775Z,90.03
2019-01-24T12:24:14.074Z,85.07
2019-01-24T12:25:19.621Z,92.88
2019-01-24T12:26:25.141Z,92.37
2019-01-24T12:27:30.601Z,85.28
2019-01-24T12:28:36.842Z,87.02
2019-01-24T12:29:42.518Z,93.35
2019-01-24T12:30:49.215Z,84.60
2019-01-24T12:31:55.678Z,88.35
2019-01-24T12:33:02.011Z,86.57
2019-01-24T12:34:08.498Z,88.05
2019-01-24T12:35:14.147Z,98.47
2019-01-24T12:36:19.882Z,87.90
2019-01-24T12:37:27.271Z,98.47
2019-01-24T12:38:35.223Z,94.47
2019-01-24T12:39:40.386Z,97.72
2019-01-24T12:40:46.223Z,88.97
2019-01-24T12:41:52.038Z,79.70
2019-01-24T12:42:58.214Z,79.32
2019-01-24T12:44:03.987Z,94.95
2019-01-24T12:45:13.327Z,81.40
2019-01-24T12:46:18.655Z,91.40
2019-01-24T12:47:28.276Z,90.55
2019-01-24T12:48:36.036Z,93.00
2019-01-24T12:49:42.434Z,84.87
2019-01-24T12:50:47.742Z,88.22
2019-01-24T12:51:53.316Z,83.67
2019-01-24T12:52:59.795Z,88.75
2019-01-24T12:54:06.137Z,85.90
2019-01-24T12:55:12.214Z,79.50
2019-01-24T12:56:17.938Z,86.08
2019-01-24T12:57:23.298Z,94.20
2019-01-24T12:58:30.167Z,95.15
2019-01-24T12:59:37.171Z,89.30
2019-01-24T13:00:42.844Z,91.72
2019-01-24T13:01:48.198Z,84.20
2019-01-24T13:02:54.257Z,81.72
2019-01-24T13:03:59.603Z,94.17
2019-01-24T13:05:08.602Z,94.62
2019-01-24T13:06:13.986Z,80.05
2019-01-24T13:07:19.982Z,75.90
2019-01-24T13:08:25.286Z,92.72
2019-01-24T13:09:31.046Z,89.97
2019-01-24T13:10:38.121Z,88.33
2019-01-24T13:11:43.408Z,86.08
2019-01-24T13:12:49.774Z,85.45
2019-01-24T13:13:55.690Z,94.50
2019-01-24T13:15:01.414Z,92.42
2019-01-24T13:16:06.771Z,87.10
2019-01-24T13:17:12.068Z,86.28
2019-01-24T13:18:17.562Z,91.57
2019-01-24T13:19:23.383Z,94.65
2019-01-24T13:20:29.093Z,91.97
2019-01-24T13:21:35.956Z,93.17
2019-01-24T13:22:41.862Z,83.97
2019-01-24T13:23:47.771Z,88.25
2019-01-24T13:24:53.195Z,93.03
2019-01-24T13:25:59.085Z,93.35
2019-01-24T13:27:04.822Z,84.83
2019-01-24T13:28:10.177Z,82.10
2019-01-24T13:29:15.478Z,81.82
2019-01-24T13:30:23.029Z,94.47
2019-01-24T13:31:28.680Z,88.17
2019-01-24T13:32:34.550Z,104.58
2019-01-24T13:33:40.072Z,95.32
2019-01-24T13:34:45.450Z,83.45
2019-01-24T13:35:50.878Z,82.82
2019-01-24T13:36:57.186Z,86.53
2019-01-24T13:38:03.311Z,82.80
2019-01-24T13:39:11.033Z,82.65
2019-01-24T13:40:18.758Z,88.30
2019-01-24T13:41:24.349Z,86.85
2019-01-24T13:42:29.647Z,90.22
2019-01-24T13:43:34.676Z,84.37
2019-01-24T13:44:39.774Z,91.87
2019-01-24T13:45:45.117Z,92.70
2019-01-24T13:46:50.145Z,90.95
2019-01-24T13:47:55.274Z,75.47
2019-01-24T13:49:00.744Z,87.67
2019-01-24T13:50:07.138Z,82.22
2019-01-24T13:51:12.325Z,83.05
2019-01-24T13:52:18.050Z,79.20
2019-01-24T13:53:22.986Z,86.35
2019-01-24T13:54:28.455Z,86.02
2019-01-24T13:55:33.545Z,91.60
2019-01-24T13:56:38.900Z,89.07
2019-01-24T13:57:44.154Z,92.80
2019-01-24T13:58:49.577Z,94.67
2019-01-24T13:59:54.762Z,88.75
2019-01-24T14:00:59.873Z,94.05
2019-01-24T14:02:05.245Z,92.45